sensor_id;sensor_type;location;lat;lon;timestamp;temperature;humidity
12981;DHT22;6555;50.468;8.480;2024-01-10T00:02:35;-3.30;48.70
12981;DHT22;6555;50.468;8.480;2024-01-10T00:07:39;-3.30;48.60
12981;DHT22;6555;50.468;8.480;2024-01-10T00:12:42;-3.30;48.60
12981;DHT22;6555;50.468;8.480;2024-01-10T00:17:46;-3.30;48.60
12981;DHT22;6555;50.468;8.480;2024-01-10T00:22:50;-3.30;49.40
12981;DHT22;6555;50.468;8.480;2024-01-10T00:27:53;-3.30;48.70
12981;DHT22;6555;50.468;8.480;2024-01-10T00:32:56;-3.30;48.70
12981;DHT22;6555;50.468;8.480;2024-01-10T00:38:01;-3.30;48.70
12981;DHT22;6555;50.468;8.480;2024-01-10T00:43:05;-3.30;48.70
12981;DHT22;6555;50.468;8.480;2024-01-10T00:48:08;-3.30;48.70
12981;DHT22;6555;50.468;8.480;2024-01-10T00:53:12;-3.30;48.70
12981;DHT22;6555;50.468;8.480;2024-01-10T00:58:16;-3.40;48.70
12981;DHT22;6555;50.468;8.480;2024-01-10T01:03:19;-3.40;48.60
12981;DHT22;6555;50.468;8.480;2024-01-10T01:08:23;-3.40;48.60
12981;DHT22;6555;50.468;8.480;2024-01-10T01:13:26;-3.40;48.70
12981;DHT22;6555;50.468;8.480;2024-01-10T01:18:29;-3.40;48.70
12981;DHT22;6555;50.468;8.480;2024-01-10T01:23:33;-3.50;48.70
12981;DHT22;6555;50.468;8.480;2024-01-10T01:28:43;-3.50;48.70
12981;DHT22;6555;50.468;8.480;2024-01-10T01:33:46;-3.50;48.80
12981;DHT22;6555;50.468;8.480;2024-01-10T01:38:50;-3.50;48.80
12981;DHT22;6555;50.468;8.480;2024-01-10T01:43:53;-3.50;48.80
12981;DHT22;6555;50.468;8.480;2024-01-10T01:48:56;-3.60;48.70
12981;DHT22;6555;50.468;8.480;2024-01-10T01:54:01;-3.60;48.80
12981;DHT22;6555;50.468;8.480;2024-01-10T01:59:05;-3.60;49.00
12981;DHT22;6555;50.468;8.480;2024-01-10T02:04:08;-3.60;49.00
12981;DHT22;6555;50.468;8.480;2024-01-10T02:09:13;-3.60;49.00
12981;DHT22;6555;50.468;8.480;2024-01-10T02:14:16;-3.60;48.90
12981;DHT22;6555;50.468;8.480;2024-01-10T02:19:21;-3.60;48.80
12981;DHT22;6555;50.468;8.480;2024-01-10T02:24:26;-3.60;48.80
12981;DHT22;6555;50.468;8.480;2024-01-10T02:29:30;-3.60;48.70
12981;DHT22;6555;50.468;8.480;2024-01-10T02:34:33;-3.70;49.30
12981;DHT22;6555;50.468;8.480;2024-01-10T02:39:36;-3.80;48.70
12981;DHT22;6555;50.468;8.480;2024-01-10T02:44:41;-3.80;48.80
12981;DHT22;6555;50.468;8.480;2024-01-10T02:49:44;-3.80;48.90
12981;DHT22;6555;50.468;8.480;2024-01-10T02:54:47;-3.80;48.90
12981;DHT22;6555;50.468;8.480;2024-01-10T02:59:51;-3.80;49.00
12981;DHT22;6555;50.468;8.480;2024-01-10T03:04:54;-3.80;49.10
12981;DHT22;6555;50.468;8.480;2024-01-10T03:09:57;-3.80;49.10
12981;DHT22;6555;50.468;8.480;2024-01-10T03:15:02;-3.80;49.00
12981;DHT22;6555;50.468;8.480;2024-01-10T03:20:06;-3.80;48.90
12981;DHT22;6555;50.468;8.480;2024-01-10T03:25:10;-3.80;49.00
12981;DHT22;6555;50.468;8.480;2024-01-10T03:30:15;-3.80;49.00
12981;DHT22;6555;50.468;8.480;2024-01-10T03:35:20;-3.90;49.00
12981;DHT22;6555;50.468;8.480;2024-01-10T03:40:23;-3.90;49.10
12981;DHT22;6555;50.468;8.480;2024-01-10T03:45:27;-3.90;49.10
12981;DHT22;6555;50.468;8.480;2024-01-10T03:50:31;-3.90;49.10
12981;DHT22;6555;50.468;8.480;2024-01-10T03:55:34;-4.00;49.00
12981;DHT22;6555;50.468;8.480;2024-01-10T04:00:38;-4.00;49.00
12981;DHT22;6555;50.468;8.480;2024-01-10T04:05:41;-4.00;49.10
12981;DHT22;6555;50.468;8.480;2024-01-10T04:10:45;-4.00;49.20
12981;DHT22;6555;50.468;8.480;2024-01-10T04:15:49;-4.00;49.10
12981;DHT22;6555;50.468;8.480;2024-01-10T04:20:52;-4.00;49.10
12981;DHT22;6555;50.468;8.480;2024-01-10T04:25:55;-4.00;49.20
12981;DHT22;6555;50.468;8.480;2024-01-10T04:31:00;-4.00;49.20
12981;DHT22;6555;50.468;8.480;2024-01-10T04:36:03;-4.00;49.30
12981;DHT22;6555;50.468;8.480;2024-01-10T04:41:06;-3.90;49.40
12981;DHT22;6555;50.468;8.480;2024-01-10T04:46:10;-3.90;49.40
12981;DHT22;6555;50.468;8.480;2024-01-10T04:51:13;-3.90;49.40
12981;DHT22;6555;50.468;8.480;2024-01-10T04:56:17;-3.90;49.40
12981;DHT22;6555;50.468;8.480;2024-01-10T05:01:22;-3.80;49.40
12981;DHT22;6555;50.468;8.480;2024-01-10T05:06:25;-3.90;49.40
12981;DHT22;6555;50.468;8.480;2024-01-10T05:11:31;-3.80;49.40
12981;DHT22;6555;50.468;8.480;2024-01-10T05:16:35;-3.80;49.30
12981;DHT22;6555;50.468;8.480;2024-01-10T05:21:38;-3.90;49.30
12981;DHT22;6555;50.468;8.480;2024-01-10T05:26:41;-3.90;49.40
12981;DHT22;6555;50.468;8.480;2024-01-10T05:31:46;-3.90;49.30
12981;DHT22;6555;50.468;8.480;2024-01-10T05:36:49;-3.90;49.30
12981;DHT22;6555;50.468;8.480;2024-01-10T05:41:52;-3.90;49.30
12981;DHT22;6555;50.468;8.480;2024-01-10T05:46:56;-3.90;49.50
12981;DHT22;6555;50.468;8.480;2024-01-10T05:52:01;-3.90;49.40
12981;DHT22;6555;50.468;8.480;2024-01-10T05:57:04;-3.90;50.00
12981;DHT22;6555;50.468;8.480;2024-01-10T06:02:08;-3.90;49.30
12981;DHT22;6555;50.468;8.480;2024-01-10T06:07:11;-4.00;49.10
12981;DHT22;6555;50.468;8.480;2024-01-10T06:12:15;-4.10;49.10
12981;DHT22;6555;50.468;8.480;2024-01-10T06:17:19;-4.10;49.20
12981;DHT22;6555;50.468;8.480;2024-01-10T06:22:22;-4.10;49.30
12981;DHT22;6555;50.468;8.480;2024-01-10T06:27:30;-4.20;49.20
12981;DHT22;6555;50.468;8.480;2024-01-10T06:32:35;-4.20;49.30
12981;DHT22;6555;50.468;8.480;2024-01-10T06:37:38;-4.10;49.50
12981;DHT22;6555;50.468;8.480;2024-01-10T06:42:41;-4.20;49.40
12981;DHT22;6555;50.468;8.480;2024-01-10T06:47:46;-4.10;50.20
12981;DHT22;6555;50.468;8.480;2024-01-10T06:52:49;-4.10;49.60
12981;DHT22;6555;50.468;8.480;2024-01-10T06:57:52;-4.10;49.50
12981;DHT22;6555;50.468;8.480;2024-01-10T07:02:57;-4.10;49.60
12981;DHT22;6555;50.468;8.480;2024-01-10T07:08:04;-4.10;49.60
12981;DHT22;6555;50.468;8.480;2024-01-10T07:13:07;-4.10;49.50
12981;DHT22;6555;50.468;8.480;2024-01-10T07:18:11;-4.10;49.40
12981;DHT22;6555;50.468;8.480;2024-01-10T07:23:14;-4.10;49.40
12981;DHT22;6555;50.468;8.480;2024-01-10T07:28:18;-4.10;49.30
12981;DHT22;6555;50.468;8.480;2024-01-10T07:33:22;-4.10;49.40
12981;DHT22;6555;50.468;8.480;2024-01-10T07:38:25;-4.10;49.50
12981;DHT22;6555;50.468;8.480;2024-01-10T07:43:28;-4.10;49.50
12981;DHT22;6555;50.468;8.480;2024-01-10T07:48:33;-4.10;49.60
12981;DHT22;6555;50.468;8.480;2024-01-10T07:53:37;-4.10;49.60
12981;DHT22;6555;50.468;8.480;2024-01-10T07:58:40;-4.10;49.50
12981;DHT22;6555;50.468;8.480;2024-01-10T08:03:45;-4.10;49.60
12981;DHT22;6555;50.468;8.480;2024-01-10T08:08:48;-4.10;49.70
12981;DHT22;6555;50.468;8.480;2024-01-10T08:13:51;-4.10;50.40
12981;DHT22;6555;50.468;8.480;2024-01-10T08:18:55;-4.10;49.70
12981;DHT22;6555;50.468;8.480;2024-01-10T08:23:59;-4.10;49.80
12981;DHT22;6555;50.468;8.480;2024-01-10T08:29:02;-4.00;50.00
12981;DHT22;6555;50.468;8.480;2024-01-10T08:34:07;-3.90;50.10
12981;DHT22;6555;50.468;8.480;2024-01-10T08:39:10;-3.90;50.10
12981;DHT22;6555;50.468;8.480;2024-01-10T08:44:13;-3.80;50.20
12981;DHT22;6555;50.468;8.480;2024-01-10T08:49:17;-3.70;50.30
12981;DHT22;6555;50.468;8.480;2024-01-10T08:54:20;-3.60;50.30
12981;DHT22;6555;50.468;8.480;2024-01-10T08:59:24;-3.60;50.20
12981;DHT22;6555;50.468;8.480;2024-01-10T09:04:30;-3.60;50.20
12981;DHT22;6555;50.468;8.480;2024-01-10T09:09:37;-3.50;50.30
12981;DHT22;6555;50.468;8.480;2024-01-10T09:14:41;-3.40;50.20
12981;DHT22;6555;50.468;8.480;2024-01-10T09:19:45;-3.40;50.20
12981;DHT22;6555;50.468;8.480;2024-01-10T09:24:48;-3.30;50.30
12981;DHT22;6555;50.468;8.480;2024-01-10T09:29:51;-3.30;50.30
12981;DHT22;6555;50.468;8.480;2024-01-10T09:34:56;-3.20;50.40
12981;DHT22;6555;50.468;8.480;2024-01-10T09:39:59;-3.10;50.50
12981;DHT22;6555;50.468;8.480;2024-01-10T09:45:04;-3.10;50.50
12981;DHT22;6555;50.468;8.480;2024-01-10T09:50:09;-3.00;50.50
12981;DHT22;6555;50.468;8.480;2024-01-10T09:55:13;-2.90;50.60
12981;DHT22;6555;50.468;8.480;2024-01-10T10:00:18;-2.80;50.60
12981;DHT22;6555;50.468;8.480;2024-01-10T10:05:22;-2.60;50.70
12981;DHT22;6555;50.468;8.480;2024-01-10T10:10:26;-2.50;50.70
12981;DHT22;6555;50.468;8.480;2024-01-10T10:15:29;-2.40;50.60
12981;DHT22;6555;50.468;8.480;2024-01-10T10:20:34;-2.30;50.40
12981;DHT22;6555;50.468;8.480;2024-01-10T10:25:44;-2.20;50.40
12981;DHT22;6555;50.468;8.480;2024-01-10T10:30:48;-2.20;50.30
12981;DHT22;6555;50.468;8.480;2024-01-10T10:35:56;-2.10;50.40
12981;DHT22;6555;50.468;8.480;2024-01-10T10:40:59;-2.10;50.40
12981;DHT22;6555;50.468;8.480;2024-01-10T10:46:04;-2.00;50.30
12981;DHT22;6555;50.468;8.480;2024-01-10T10:51:10;-2.00;50.40
12981;DHT22;6555;50.468;8.480;2024-01-10T10:56:13;-1.90;50.40
12981;DHT22;6555;50.468;8.480;2024-01-10T11:01:17;-1.80;50.20
12981;DHT22;6555;50.468;8.480;2024-01-10T11:06:22;-1.80;50.10
12981;DHT22;6555;50.468;8.480;2024-01-10T11:11:45;-1.80;50.10
12981;DHT22;6555;50.468;8.480;2024-01-10T11:17:10;-1.80;50.00
12981;DHT22;6555;50.468;8.480;2024-01-10T11:22:36;-1.70;50.10
12981;DHT22;6555;50.468;8.480;2024-01-10T11:27:42;-1.70;50.00
12981;DHT22;6555;50.468;8.480;2024-01-10T11:32:45;-1.70;50.10
12981;DHT22;6555;50.468;8.480;2024-01-10T11:37:50;-1.70;50.20
12981;DHT22;6555;50.468;8.480;2024-01-10T11:42:53;-1.60;50.20
12981;DHT22;6555;50.468;8.480;2024-01-10T11:47:56;-1.60;50.20
12981;DHT22;6555;50.468;8.480;2024-01-10T11:53:00;-1.50;50.30
12981;DHT22;6555;50.468;8.480;2024-01-10T11:58:08;-1.50;50.20
12981;DHT22;6555;50.468;8.480;2024-01-10T12:03:12;-1.40;50.20
12981;DHT22;6555;50.468;8.480;2024-01-10T12:08:16;-1.40;50.20
12981;DHT22;6555;50.468;8.480;2024-01-10T12:13:22;-1.40;50.20
12981;DHT22;6555;50.468;8.480;2024-01-10T12:18:25;-1.30;50.40
12981;DHT22;6555;50.468;8.480;2024-01-10T12:23:29;-1.30;50.30
12981;DHT22;6555;50.468;8.480;2024-01-10T12:28:33;-1.20;50.40
12981;DHT22;6555;50.468;8.480;2024-01-10T12:33:37;-1.20;50.40
12981;DHT22;6555;50.468;8.480;2024-01-10T12:38:43;-1.10;50.30
12981;DHT22;6555;50.468;8.480;2024-01-10T12:43:49;-1.00;50.20
12981;DHT22;6555;50.468;8.480;2024-01-10T12:49:00;-0.90;50.50
12981;DHT22;6555;50.468;8.480;2024-01-10T12:54:05;-0.80;50.40
12981;DHT22;6555;50.468;8.480;2024-01-10T12:59:09;-0.70;50.20
12981;DHT22;6555;50.468;8.480;2024-01-10T13:04:12;-0.70;50.30
12981;DHT22;6555;50.468;8.480;2024-01-10T13:09:17;-0.60;50.30
12981;DHT22;6555;50.468;8.480;2024-01-10T13:14:21;-0.50;50.30
12981;DHT22;6555;50.468;8.480;2024-01-10T13:19:24;-0.50;50.20
12981;DHT22;6555;50.468;8.480;2024-01-10T13:24:29;-0.40;50.10
12981;DHT22;6555;50.468;8.480;2024-01-10T13:29:32;-0.40;50.00
12981;DHT22;6555;50.468;8.480;2024-01-10T13:34:37;-0.40;50.10
12981;DHT22;6555;50.468;8.480;2024-01-10T13:39:42;-0.40;50.20
12981;DHT22;6555;50.468;8.480;2024-01-10T13:44:45;-0.30;50.50
12981;DHT22;6555;50.468;8.480;2024-01-10T13:49:48;-0.20;50.50
12981;DHT22;6555;50.468;8.480;2024-01-10T13:54:53;-0.10;50.70
12981;DHT22;6555;50.468;8.480;2024-01-10T13:59:56;0.10;50.80
12981;DHT22;6555;50.468;8.480;2024-01-10T14:04:59;0.30;50.90
12981;DHT22;6555;50.468;8.480;2024-01-10T14:10:09;0.50;50.90
12981;DHT22;6555;50.468;8.480;2024-01-10T14:15:12;0.60;50.60
12981;DHT22;6555;50.468;8.480;2024-01-10T14:20:15;0.80;50.70
12981;DHT22;6555;50.468;8.480;2024-01-10T14:25:20;1.00;50.70
12981;DHT22;6555;50.468;8.480;2024-01-10T14:30:23;1.10;50.80
12981;DHT22;6555;50.468;8.480;2024-01-10T14:35:27;1.20;50.60
12981;DHT22;6555;50.468;8.480;2024-01-10T14:40:32;1.30;50.60
12981;DHT22;6555;50.468;8.480;2024-01-10T14:45:35;1.40;50.40
12981;DHT22;6555;50.468;8.480;2024-01-10T14:50:38;1.40;50.30
12981;DHT22;6555;50.468;8.480;2024-01-10T14:55:43;1.40;50.20
12981;DHT22;6555;50.468;8.480;2024-01-10T15:00:46;1.50;50.10
12981;DHT22;6555;50.468;8.480;2024-01-10T15:05:49;1.50;50.10
12981;DHT22;6555;50.468;8.480;2024-01-10T15:10:55;1.50;50.00
12981;DHT22;6555;50.468;8.480;2024-01-10T15:15:58;1.40;49.90
12981;DHT22;6555;50.468;8.480;2024-01-10T15:21:01;1.40;49.90
12981;DHT22;6555;50.468;8.480;2024-01-10T15:26:07;1.30;49.90
12981;DHT22;6555;50.468;8.480;2024-01-10T15:31:14;1.20;49.70
12981;DHT22;6555;50.468;8.480;2024-01-10T15:36:17;1.10;49.70
12981;DHT22;6555;50.468;8.480;2024-01-10T15:41:21;1.00;49.60
12981;DHT22;6555;50.468;8.480;2024-01-10T15:46:24;1.00;49.70
12981;DHT22;6555;50.468;8.480;2024-01-10T15:51:27;0.90;49.80
12981;DHT22;6555;50.468;8.480;2024-01-10T15:56:32;0.80;49.80
12981;DHT22;6555;50.468;8.480;2024-01-10T16:01:40;0.80;49.80
12981;DHT22;6555;50.468;8.480;2024-01-10T16:06:43;0.80;49.90
12981;DHT22;6555;50.468;8.480;2024-01-10T16:11:47;0.70;49.90
12981;DHT22;6555;50.468;8.480;2024-01-10T16:16:51;0.70;49.90
12981;DHT22;6555;50.468;8.480;2024-01-10T16:21:54;0.60;49.80
12981;DHT22;6555;50.468;8.480;2024-01-10T16:26:58;0.60;49.90
12981;DHT22;6555;50.468;8.480;2024-01-10T16:32:03;0.60;49.80
12981;DHT22;6555;50.468;8.480;2024-01-10T16:37:06;0.50;49.80
12981;DHT22;6555;50.468;8.480;2024-01-10T16:42:11;0.40;49.70
12981;DHT22;6555;50.468;8.480;2024-01-10T16:47:16;0.40;49.70
12981;DHT22;6555;50.468;8.480;2024-01-10T16:52:19;0.30;49.70
12981;DHT22;6555;50.468;8.480;2024-01-10T16:57:24;0.30;49.70
12981;DHT22;6555;50.468;8.480;2024-01-10T17:02:27;0.20;49.60
12981;DHT22;6555;50.468;8.480;2024-01-10T17:07:30;0.20;49.70
12981;DHT22;6555;50.468;8.480;2024-01-10T17:12:34;0.10;49.70
12981;DHT22;6555;50.468;8.480;2024-01-10T17:17:37;0.00;49.50
12981;DHT22;6555;50.468;8.480;2024-01-10T17:22:41;-0.10;49.60
12981;DHT22;6555;50.468;8.480;2024-01-10T17:27:46;-0.20;49.40
12981;DHT22;6555;50.468;8.480;2024-01-10T17:32:49;-0.30;49.50
12981;DHT22;6555;50.468;8.480;2024-01-10T17:37:52;-0.30;49.60
12981;DHT22;6555;50.468;8.480;2024-01-10T17:42:56;-0.40;49.40
12981;DHT22;6555;50.468;8.480;2024-01-10T17:48:00;-0.50;49.40
12981;DHT22;6555;50.468;8.480;2024-01-10T17:53:04;-0.60;49.40
12981;DHT22;6555;50.468;8.480;2024-01-10T17:58:09;-0.70;49.50
12981;DHT22;6555;50.468;8.480;2024-01-10T18:03:12;-0.70;49.60
12981;DHT22;6555;50.468;8.480;2024-01-10T18:08:15;-0.80;49.50
12981;DHT22;6555;50.468;8.480;2024-01-10T18:13:20;-0.90;49.60
12981;DHT22;6555;50.468;8.480;2024-01-10T18:18:23;-0.90;49.50
12981;DHT22;6555;50.468;8.480;2024-01-10T18:23:26;-1.00;49.30
12981;DHT22;6555;50.468;8.480;2024-01-10T18:28:31;-1.10;50.40
12981;DHT22;6555;50.468;8.480;2024-01-10T18:33:35;-1.20;49.40
12981;DHT22;6555;50.468;8.480;2024-01-10T18:38:39;-1.20;49.50
12981;DHT22;6555;50.468;8.480;2024-01-10T18:43:43;-1.30;49.60
12981;DHT22;6555;50.468;8.480;2024-01-10T18:48:46;-1.30;49.50
12981;DHT22;6555;50.468;8.480;2024-01-10T18:53:50;-1.30;49.60
12981;DHT22;6555;50.468;8.480;2024-01-10T18:58:55;-1.40;49.60
12981;DHT22;6555;50.468;8.480;2024-01-10T19:03:58;-1.50;49.60
12981;DHT22;6555;50.468;8.480;2024-01-10T19:09:01;-1.50;49.60
12981;DHT22;6555;50.468;8.480;2024-01-10T19:14:05;-1.50;49.60
12981;DHT22;6555;50.468;8.480;2024-01-10T19:19:09;-1.60;49.60
12981;DHT22;6555;50.468;8.480;2024-01-10T19:24:12;-1.60;49.60
12981;DHT22;6555;50.468;8.480;2024-01-10T19:29:16;-1.70;49.70
12981;DHT22;6555;50.468;8.480;2024-01-10T19:34:19;-1.70;49.60
12981;DHT22;6555;50.468;8.480;2024-01-10T19:39:24;-1.70;49.70
12981;DHT22;6555;50.468;8.480;2024-01-10T19:44:29;-1.80;49.40
12981;DHT22;6555;50.468;8.480;2024-01-10T19:49:32;-1.90;49.50
12981;DHT22;6555;50.468;8.480;2024-01-10T19:54:36;-1.90;49.90
12981;DHT22;6555;50.468;8.480;2024-01-10T19:59:41;-2.00;49.50
12981;DHT22;6555;50.468;8.480;2024-01-10T20:04:45;-2.00;49.50
12981;DHT22;6555;50.468;8.480;2024-01-10T20:09:48;-2.00;49.50
12981;DHT22;6555;50.468;8.480;2024-01-10T20:14:53;-2.10;49.70
12981;DHT22;6555;50.468;8.480;2024-01-10T20:19:57;-2.10;49.70
12981;DHT22;6555;50.468;8.480;2024-01-10T20:25:00;-2.10;49.70
12981;DHT22;6555;50.468;8.480;2024-01-10T20:30:06;-2.20;49.60
12981;DHT22;6555;50.468;8.480;2024-01-10T20:35:10;-2.20;49.50
12981;DHT22;6555;50.468;8.480;2024-01-10T20:40:13;-2.30;49.60
12981;DHT22;6555;50.468;8.480;2024-01-10T20:45:18;-2.30;49.60
12981;DHT22;6555;50.468;8.480;2024-01-10T20:50:21;-2.30;49.70
12981;DHT22;6555;50.468;8.480;2024-01-10T20:55:24;-2.40;49.60
12981;DHT22;6555;50.468;8.480;2024-01-10T21:00:28;-2.40;49.60
12981;DHT22;6555;50.468;8.480;2024-01-10T21:05:35;-2.40;50.30
12981;DHT22;6555;50.468;8.480;2024-01-10T21:10:38;-2.50;49.70
12981;DHT22;6555;50.468;8.480;2024-01-10T21:15:42;-2.50;49.60
12981;DHT22;6555;50.468;8.480;2024-01-10T21:20:45;-2.50;49.60
12981;DHT22;6555;50.468;8.480;2024-01-10T21:25:48;-2.60;49.50
12981;DHT22;6555;50.468;8.480;2024-01-10T21:30:53;-2.60;49.60
12981;DHT22;6555;50.468;8.480;2024-01-10T21:35:56;-2.70;49.70
12981;DHT22;6555;50.468;8.480;2024-01-10T21:40:59;-2.70;49.70
12981;DHT22;6555;50.468;8.480;2024-01-10T21:46:04;-2.70;49.80
12981;DHT22;6555;50.468;8.480;2024-01-10T21:51:07;-2.70;49.80
12981;DHT22;6555;50.468;8.480;2024-01-10T21:56:11;-2.70;49.90
12981;DHT22;6555;50.468;8.480;2024-01-10T22:01:15;-2.70;49.90
12981;DHT22;6555;50.468;8.480;2024-01-10T22:06:19;-2.70;49.80
12981;DHT22;6555;50.468;8.480;2024-01-10T22:11:22;-2.70;49.80
12981;DHT22;6555;50.468;8.480;2024-01-10T22:16:27;-2.80;49.70
12981;DHT22;6555;50.468;8.480;2024-01-10T22:21:30;-2.80;49.80
12981;DHT22;6555;50.468;8.480;2024-01-10T22:26:33;-2.80;49.80
12981;DHT22;6555;50.468;8.480;2024-01-10T22:31:37;-2.80;49.70
12981;DHT22;6555;50.468;8.480;2024-01-10T22:36:40;-2.80;49.70
12981;DHT22;6555;50.468;8.480;2024-01-10T22:41:43;-2.80;49.70
12981;DHT22;6555;50.468;8.480;2024-01-10T22:46:48;-2.90;49.60
12981;DHT22;6555;50.468;8.480;2024-01-10T22:51:51;-2.90;49.70
12981;DHT22;6555;50.468;8.480;2024-01-10T22:56:54;-3.00;49.50
12981;DHT22;6555;50.468;8.480;2024-01-10T23:01:58;-3.00;49.50
12981;DHT22;6555;50.468;8.480;2024-01-10T23:07:01;-3.10;49.60
12981;DHT22;6555;50.468;8.480;2024-01-10T23:12:05;-3.10;49.50
12981;DHT22;6555;50.468;8.480;2024-01-10T23:17:10;-3.20;49.50
12981;DHT22;6555;50.468;8.480;2024-01-10T23:22:14;-3.30;49.50
12981;DHT22;6555;50.468;8.480;2024-01-10T23:27:17;-3.40;49.50
12981;DHT22;6555;50.468;8.480;2024-01-10T23:32:23;-3.40;49.50
12981;DHT22;6555;50.468;8.480;2024-01-10T23:37:26;-3.50;49.50
12981;DHT22;6555;50.468;8.480;2024-01-10T23:42:29;-3.60;49.30
12981;DHT22;6555;50.468;8.480;2024-01-10T23:47:34;-3.60;49.40
12981;DHT22;6555;50.468;8.480;2024-01-10T23:52:37;-3.70;49.60
12981;DHT22;6555;50.468;8.480;2024-01-10T23:57:40;-3.70;49.70
